createdAt,value
2023-06-06T00:01:26.079Z,100043.63
2023-06-06T00:03:56.847Z,100049.72
2023-06-06T00:06:29.007Z,100041.03
2023-06-06T00:08:57.772Z,100058.34
2023-06-06T00:11:26.447Z,100041.97
2023-06-06T00:13:54.990Z,100046.28
2023-06-06T00:16:24.982Z,100047.13
2023-06-06T00:18:54.223Z,100048.84
2023-06-06T00:21:24.246Z,100044.56
2023-06-06T00:23:53.706Z,100035.94
2023-06-06T00:26:22.376Z,100041.09
2023-06-06T00:28:51.430Z,100045.41
2023-06-06T00:31:19.845Z,100045.44
2023-06-06T00:33:48.385Z,100050.59
2023-06-06T00:36:17.434Z,100052.34
2023-06-06T00:38:48.372Z,100058.38
2023-06-06T00:41:17.320Z,100066.16
2023-06-06T00:43:46.554Z,100060.09
2023-06-06T00:46:17.651Z,100055.78
2023-06-06T00:48:50.813Z,100061.88
2023-06-06T00:51:24.966Z,100067.09
2023-06-06T00:53:56.500Z,100071.41
2023-06-06T00:56:29.646Z,100063.63
2023-06-06T00:59:02.695Z,100069.66
2023-06-06T01:01:34.767Z,100071.41
2023-06-06T01:04:05.814Z,100065.38
2023-06-06T01:06:34.757Z,100067.97
2023-06-06T01:09:09.760Z,100073.13
2023-06-06T01:11:52.862Z,100076.56
2023-06-06T01:14:26.128Z,100073.09
2023-06-06T01:16:59.037Z,100078.28
2023-06-06T01:19:30.890Z,100084.34
2023-06-06T01:22:02.776Z,100082.59
2023-06-06T01:24:31.852Z,100081.75
2023-06-06T01:27:04.953Z,100087.81
2023-06-06T01:29:33.654Z,100077.47
2023-06-06T01:32:06.466Z,100081.75
2023-06-06T01:34:40.170Z,100086.91
2023-06-06T01:37:16.207Z,100086.06
2023-06-06T01:39:49.336Z,100085.19
2023-06-06T01:42:20.175Z,100088.63
2023-06-06T01:44:50.623Z,100088.66
2023-06-06T01:47:21.662Z,100086.91
2023-06-06T01:49:50.520Z,100099.84
2023-06-06T01:52:22.855Z,100097.25
2023-06-06T01:54:51.717Z,100098.13
2023-06-06T01:57:20.092Z,100092.09
2023-06-06T01:59:51.854Z,100093.84
2023-06-06T02:02:20.880Z,100095.56
2023-06-06T02:04:49.713Z,100092.97
2023-06-06T02:07:18.508Z,100103.31
2023-06-06T02:09:49.275Z,100109.38
2023-06-06T02:12:20.919Z,100107.59
2023-06-06T02:14:49.682Z,100109.38
2023-06-06T02:17:18.342Z,100109.34
2023-06-06T02:19:47.245Z,100110.22
2023-06-06T02:22:18.068Z,100109.38
2023-06-06T02:24:46.538Z,100110.22
2023-06-06T02:27:17.013Z,100104.16
2023-06-06T02:29:45.684Z,100109.31
2023-06-06T02:32:16.893Z,100100.72
2023-06-06T02:34:45.566Z,100109.31
2023-06-06T02:37:14.156Z,100113.59
2023-06-06T02:39:42.743Z,100112.75
2023-06-06T02:42:13.644Z,100103.22
2023-06-06T02:44:48.943Z,100105.78
2023-06-06T02:47:19.654Z,100116.16
2023-06-06T02:49:48.082Z,100116.97
2023-06-06T02:52:18.393Z,100113.50
2023-06-06T02:54:46.892Z,100123.84
2023-06-06T02:57:17.899Z,100122.13
2023-06-06T02:59:47.836Z,100116.88
2023-06-06T03:02:22.026Z,100115.97
2023-06-06T03:04:50.932Z,100118.53
2023-06-06T03:07:19.608Z,100103.88
2023-06-06T03:09:48.697Z,100124.53
2023-06-06T03:12:21.467Z,100116.53
2023-06-06T03:14:57.728Z,100126.97
2023-06-06T03:17:37.220Z,100126.91
2023-06-06T03:20:09.144Z,100127.72
2023-06-06T03:22:40.018Z,100126.66
2023-06-06T03:25:09.296Z,100136.84
2023-06-06T03:27:38.753Z,100135.28
2023-06-06T03:30:13.754Z,100130.91
2023-06-06T03:32:44.723Z,100131.03
2023-06-06T03:35:16.019Z,100134.47
2023-06-06T03:37:45.520Z,100129.03
2023-06-06T03:40:17.796Z,100132.09
2023-06-06T03:42:50.126Z,100130.94
2023-06-06T03:45:20.385Z,100127.38
2023-06-06T03:47:50.312Z,100121.94
2023-06-06T03:50:22.949Z,100124.69
2023-06-06T03:52:51.534Z,100121.13
2023-06-06T03:55:20.920Z,100121.72
2023-06-06T03:57:49.813Z,100121.97
2023-06-06T04:00:20.432Z,100125.13
2023-06-06T04:02:49.646Z,100125.13
2023-06-06T04:05:19.244Z,100124.38
2023-06-06T04:07:48.073Z,100117.34
2023-06-06T04:10:16.557Z,100127.09
2023-06-06T04:12:45.207Z,100126.13
2023-06-06T04:15:13.801Z,100116.47
2023-06-06T04:17:43.945Z,100115.13
2023-06-06T04:20:13.547Z,100115.56
2023-06-06T04:22:42.299Z,100121.97
2023-06-06T04:25:16.095Z,100115.25
2023-06-06T04:27:46.180Z,100118.53
2023-06-06T04:30:15.075Z,100115.53
2023-06-06T04:32:46.002Z,100117.09
2023-06-06T04:35:14.756Z,100120.19
2023-06-06T04:37:43.793Z,100122.69
2023-06-06T04:40:12.930Z,100120.06
2023-06-06T04:42:42.127Z,100119.84
2023-06-06T04:45:11.985Z,100117.69
2023-06-06T04:47:47.200Z,100116.94
2023-06-06T04:50:18.479Z,100125.94
2023-06-06T04:52:47.898Z,100130.25
2023-06-06T04:55:19.748Z,100122.53
2023-06-06T04:57:49.806Z,100119.56
2023-06-06T05:00:18.672Z,100113.41
2023-06-06T05:02:51.468Z,100113.53
2023-06-06T05:05:20.310Z,100104.06
2023-06-06T05:07:51.667Z,100104.03
2023-06-06T05:10:20.387Z,100091.13
2023-06-06T05:12:48.992Z,100105.84
2023-06-06T05:15:17.817Z,100111.78
2023-06-06T05:17:59.596Z,100102.63
2023-06-06T05:20:28.582Z,100103.66
2023-06-06T05:23:02.375Z,100110.31
2023-06-06T05:25:31.545Z,100119.75
2023-06-06T05:28:00.070Z,100115.00
2023-06-06T05:30:29.768Z,100108.88
2023-06-06T05:32:59.875Z,100103.31
2023-06-06T05:35:28.448Z,100108.03
2023-06-06T05:37:58.263Z,100102.97
2023-06-06T05:40:26.988Z,100101.06
2023-06-06T05:42:55.456Z,100099.84
2023-06-06T05:45:24.231Z,100099.63
2023-06-06T05:47:52.600Z,100096.09
2023-06-06T05:50:22.573Z,100095.94
2023-06-06T05:52:52.859Z,100101.84
2023-06-06T05:55:31.781Z,100089.63
2023-06-06T05:58:00.881Z,100092.72
2023-06-06T06:00:37.429Z,100091.38
2023-06-06T06:03:06.146Z,100088.03
2023-06-06T06:05:36.555Z,100096.19
2023-06-06T06:08:07.574Z,100090.22
2023-06-06T06:10:37.711Z,100091.19
2023-06-06T06:13:07.570Z,100076.38
2023-06-06T06:15:43.168Z,100076.13
2023-06-06T06:18:15.894Z,100080.97
2023-06-06T06:20:46.057Z,100078.31
2023-06-06T06:23:20.592Z,100078.25
2023-06-06T06:25:49.356Z,100080.13
2023-06-06T06:28:23.847Z,100089.34
2023-06-06T06:30:52.578Z,100080.28
2023-06-06T06:33:24.284Z,100085.00
2023-06-06T06:35:56.264Z,100086.56
2023-06-06T06:38:26.302Z,100074.53
2023-06-06T06:40:55.265Z,100089.06
2023-06-06T06:43:23.859Z,100071.78
2023-06-06T06:46:02.083Z,100079.09
2023-06-06T06:48:33.803Z,100074.75
2023-06-06T06:51:03.957Z,100075.03
2023-06-06T06:53:33.304Z,100072.88
2023-06-06T06:56:02.339Z,100066.47
2023-06-06T06:58:35.688Z,100056.72
2023-06-06T07:01:12.232Z,100070.75
2023-06-06T07:03:45.762Z,100066.78
2023-06-06T07:06:16.559Z,100062.13
2023-06-06T07:08:48.049Z,100063.25
2023-06-06T07:11:19.435Z,100063.91
2023-06-06T07:13:48.153Z,100054.44
2023-06-06T07:16:21.565Z,100057.50
2023-06-06T07:18:53.586Z,100064.38
2023-06-06T07:21:24.146Z,100056.25
2023-06-06T07:23:52.835Z,100067.28
2023-06-06T07:26:27.660Z,100069.66
2023-06-06T07:28:57.680Z,100063.16
2023-06-06T07:31:29.259Z,100056.50
2023-06-06T07:34:01.268Z,100055.22
2023-06-06T07:36:32.553Z,100056.00
2023-06-06T07:39:09.144Z,100052.47
2023-06-06T07:41:37.787Z,100052.53
2023-06-06T07:44:06.419Z,100059.56
2023-06-06T07:46:35.267Z,100060.41
2023-06-06T07:49:03.914Z,100050.19
2023-06-06T07:51:34.960Z,100058.91
2023-06-06T07:54:08.502Z,100049.09
2023-06-06T07:56:38.840Z,100054.84
2023-06-06T07:59:07.566Z,100042.88
2023-06-06T08:01:37.230Z,100044.78
2023-06-06T08:04:08.788Z,100045.75
2023-06-06T08:06:41.083Z,100049.88
2023-06-06T08:09:10.068Z,100053.44
2023-06-06T08:11:38.794Z,100044.50
2023-06-06T08:14:10.312Z,100047.19
2023-06-06T08:16:41.936Z,100042.06
2023-06-06T08:19:10.936Z,100047.97
2023-06-06T08:21:41.109Z,100035.81
2023-06-06T08:24:12.804Z,100033.22
2023-06-06T08:26:41.374Z,100035.63
2023-06-06T08:29:12.256Z,100031.56
2023-06-06T08:31:40.822Z,100034.78
2023-06-06T08:34:09.350Z,100026.19
2023-06-06T08:36:42.743Z,100035.78
2023-06-06T08:39:11.452Z,100035.84
2023-06-06T08:41:50.845Z,100029.19
2023-06-06T08:44:21.170Z,100028.72
2023-06-06T08:46:52.373Z,100025.56
2023-06-06T08:49:22.161Z,100017.81
2023-06-06T08:51:54.141Z,100018.50
2023-06-06T08:54:23.049Z,100007.22
2023-06-06T08:56:53.094Z,100017.25
2023-06-06T08:59:22.667Z,100004.06
2023-06-06T09:01:52.761Z,100003.00
2023-06-06T09:04:21.931Z,99999.31
2023-06-06T09:06:58.036Z,100010.94
2023-06-06T09:09:27.722Z,99997.72
2023-06-06T09:11:56.387Z,99993.63
2023-06-06T09:14:25.222Z,100006.50
2023-06-06T09:16:53.943Z,99991.50
2023-06-06T09:19:27.000Z,99982.22
2023-06-06T09:22:00.336Z,99980.97
2023-06-06T09:24:31.789Z,99967.09
2023-06-06T09:27:00.545Z,99975.66
2023-06-06T09:29:29.622Z,99969.56
2023-06-06T09:32:01.921Z,99969.47
2023-06-06T09:34:32.489Z,99968.22
2023-06-06T09:37:06.818Z,99971.47
2023-06-06T09:39:35.603Z,99970.00
2023-06-06T09:42:09.509Z,99979.03
2023-06-06T09:44:38.495Z,99983.94
2023-06-06T09:47:07.852Z,99978.38
2023-06-06T09:49:39.348Z,99976.09
2023-06-06T09:52:15.461Z,99979.09
2023-06-06T09:54:44.876Z,99980.59
2023-06-06T09:57:18.420Z,99984.81
2023-06-06T09:59:49.569Z,99977.72
2023-06-06T10:02:22.990Z,99976.13
2023-06-06T10:04:54.763Z,99978.47
2023-06-06T10:07:25.535Z,99976.31
2023-06-06T10:10:01.941Z,99968.00
2023-06-06T10:12:33.993Z,99977.44
2023-06-06T10:15:04.701Z,99988.78
2023-06-06T10:17:37.257Z,99979.63
2023-06-06T10:20:08.542Z,99990.78
2023-06-06T10:22:39.136Z,99970.47
2023-06-06T10:25:12.438Z,99971.47
2023-06-06T10:27:51.522Z,99981.56
2023-06-06T10:30:33.175Z,99979.44
2023-06-06T10:33:24.229Z,99977.63
2023-06-06T10:36:01.026Z,99983.84
2023-06-06T10:38:31.181Z,99977.56
2023-06-06T10:41:00.425Z,99970.22
2023-06-06T10:43:54.154Z,99971.75
2023-06-06T10:46:26.051Z,99971.75
2023-06-06T10:49:00.430Z,99969.75
2023-06-06T10:51:34.138Z,99969.22
2023-06-06T10:54:19.998Z,99971.75
2023-06-06T10:56:56.646Z,99969.09
2023-06-06T10:59:28.592Z,99966.59
2023-06-06T11:02:27.810Z,99956.31
2023-06-06T11:05:25.978Z,99955.84
2023-06-06T11:08:03.154Z,99938.94
2023-06-06T11:10:47.476Z,99939.31
2023-06-06T11:13:30.949Z,99940.34
2023-06-06T11:16:03.343Z,99934.81
2023-06-06T11:18:41.168Z,99945.13
2023-06-06T11:21:12.954Z,99937.91
2023-06-06T11:23:44.174Z,99937.81
2023-06-06T11:26:14.811Z,99946.94
2023-06-06T11:28:50.820Z,99932.25
2023-06-06T11:31:24.046Z,99940.34
2023-06-06T11:33:52.912Z,99926.09
2023-06-06T11:36:23.147Z,99943.06
2023-06-06T11:39:01.836Z,99944.41
2023-06-06T11:41:44.644Z,99942.13
2023-06-06T11:44:18.936Z,99930.47
2023-06-06T11:46:49.367Z,99934.50
2023-06-06T11:49:19.175Z,99944.19
2023-06-06T11:52:04.367Z,99937.91
2023-06-06T11:54:33.319Z,99932.91
2023-06-06T11:57:04.691Z,99925.06
2023-06-06T11:59:37.417Z,99925.47
2023-06-06T12:02:25.349Z,99930.13
2023-06-06T12:05:13.923Z,99924.31
2023-06-06T12:07:46.204Z,99905.22
2023-06-06T12:10:14.932Z,99901.09
2023-06-06T12:12:49.417Z,99914.28
2023-06-06T12:15:44.912Z,99903.94
2023-06-06T12:18:18.972Z,99894.91
2023-06-06T12:20:56.908Z,99895.06
2023-06-06T12:23:33.523Z,99882.66
2023-06-06T12:26:03.825Z,99889.31
2023-06-06T12:28:34.058Z,99902.88
2023-06-06T12:31:20.075Z,99879.59
2023-06-06T12:34:14.487Z,99883.00
2023-06-06T12:36:43.602Z,99894.59
2023-06-06T12:39:15.583Z,99889.34
2023-06-06T12:41:46.093Z,99870.75
2023-06-06T12:44:19.197Z,99879.88
2023-06-06T12:46:49.633Z,99871.28
2023-06-06T12:49:24.120Z,99884.16
2023-06-06T12:51:55.752Z,99873.31
2023-06-06T12:54:30.827Z,99882.22
2023-06-06T12:57:00.664Z,99883.84
2023-06-06T12:59:38.877Z,99865.88
2023-06-06T13:02:09.063Z,99876.88
2023-06-06T13:04:38.159Z,99857.88
2023-06-06T13:07:07.481Z,99871.72
2023-06-06T13:09:38.919Z,99865.38
2023-06-06T13:12:09.364Z,99873.81
2023-06-06T13:14:40.282Z,99879.66
2023-06-06T13:17:14.306Z,99881.00
2023-06-06T13:19:46.319Z,99866.97
2023-06-06T13:22:20.020Z,99867.22
2023-06-06T13:24:55.870Z,99858.25
2023-06-06T13:27:26.942Z,99857.41
2023-06-06T13:30:00.452Z,99862.59
2023-06-06T13:32:32.447Z,99862.59
2023-06-06T13:35:05.822Z,99856.31
2023-06-06T13:37:35.005Z,99856.53
2023-06-06T13:40:10.734Z,99851.50
2023-06-06T13:42:48.287Z,99854.69
2023-06-06T13:45:23.269Z,99838.63
2023-06-06T13:48:00.829Z,99854.34
2023-06-06T13:50:33.364Z,99846.19
2023-06-06T13:53:06.837Z,99841.47
2023-06-06T13:55:39.031Z,99838.22
2023-06-06T14:01:12.728Z,99828.75
2023-06-06T14:03:47.101Z,99834.09
2023-06-06T14:06:22.214Z,99836.22
2023-06-06T14:08:50.982Z,99837.38
2023-06-06T14:11:30.840Z,99809.34
2023-06-06T14:14:04.139Z,99823.13
2023-06-06T14:16:44.905Z,99831.09
2023-06-06T14:19:40.236Z,99808.06
2023-06-06T14:22:22.165Z,99805.94
2023-06-06T14:24:51.858Z,99821.25
2023-06-06T14:27:20.677Z,99807.72
2023-06-06T14:29:49.963Z,99812.88
2023-06-06T14:32:20.656Z,99817.88
2023-06-06T14:34:50.034Z,99819.91
2023-06-06T14:37:18.515Z,99828.28
2023-06-06T14:39:54.838Z,99820.28
2023-06-06T14:42:23.625Z,99818.72
2023-06-06T14:44:52.517Z,99822.53
2023-06-06T14:47:26.458Z,99821.94
2023-06-06T14:49:55.395Z,99819.13
2023-06-06T14:52:23.870Z,99820.88
2023-06-06T14:54:52.655Z,99818.34
2023-06-06T14:57:25.925Z,99814.16
2023-06-06T14:59:56.731Z,99809.66
2023-06-06T15:02:27.362Z,99813.72
2023-06-06T15:04:56.086Z,99811.13
2023-06-06T15:07:27.777Z,99817.16
2023-06-06T15:09:57.301Z,99805.31
2023-06-06T15:12:25.907Z,99811.69
2023-06-06T15:14:54.706Z,99820.03
2023-06-06T15:17:27.861Z,99816.09
2023-06-06T15:19:56.398Z,99814.69
2023-06-06T15:22:25.568Z,99808.84
2023-06-06T15:24:55.369Z,99812.69
2023-06-06T15:27:25.333Z,99815.03
2023-06-06T15:29:56.736Z,99815.78
2023-06-06T15:32:29.025Z,99816.94
2023-06-06T15:34:59.917Z,99808.56
2023-06-06T15:37:30.665Z,99811.81
2023-06-06T15:39:59.495Z,99814.16
2023-06-06T15:42:28.204Z,99822.94
2023-06-06T15:44:58.107Z,99812.22
2023-06-06T15:47:27.580Z,99811.13
2023-06-06T15:49:56.117Z,99809.59
2023-06-06T15:52:26.500Z,99816.97
2023-06-06T15:54:55.135Z,99814.16
2023-06-06T15:57:23.915Z,99805.09
2023-06-06T15:59:52.624Z,99820.19
2023-06-06T16:02:23.947Z,99814.22
2023-06-06T16:04:52.569Z,99822.28
2023-06-06T16:07:21.004Z,99813.13
2023-06-06T16:09:53.601Z,99813.69
2023-06-06T16:12:22.396Z,99812.69
2023-06-06T16:14:51.861Z,99822.75
2023-06-06T16:17:20.545Z,99818.66
2023-06-06T16:19:49.111Z,99815.88
2023-06-06T16:22:17.846Z,99819.28
2023-06-06T16:24:48.889Z,99816.16
2023-06-06T16:27:18.988Z,99811.44
2023-06-06T16:29:47.642Z,99814.28
2023-06-06T16:32:18.088Z,99816.56
2023-06-06T16:34:48.120Z,99802.25
2023-06-06T16:37:17.384Z,99817.78
2023-06-06T16:39:49.493Z,99825.50
2023-06-06T16:42:19.630Z,99828.50
2023-06-06T16:44:50.362Z,99836.16
2023-06-06T16:47:20.383Z,99830.75
2023-06-06T16:49:50.692Z,99823.91
2023-06-06T16:52:22.072Z,99839.38
2023-06-06T16:54:50.648Z,99839.56
2023-06-06T16:57:20.862Z,99839.69
2023-06-06T16:59:50.683Z,99849.53
2023-06-06T17:02:20.889Z,99843.59
2023-06-06T17:04:50.824Z,99849.66
2023-06-06T17:07:21.240Z,99861.38
2023-06-06T17:09:53.495Z,99850.84
2023-06-06T17:12:25.948Z,99858.56
2023-06-06T17:14:55.149Z,99855.31
2023-06-06T17:17:24.430Z,99855.75
2023-06-06T17:19:53.376Z,99866.66
2023-06-06T17:22:24.368Z,99866.81
2023-06-06T17:24:57.638Z,99867.91
2023-06-06T17:27:27.748Z,99868.91
2023-06-06T17:29:57.238Z,99868.09
2023-06-06T17:32:27.815Z,99875.47
2023-06-06T17:34:56.437Z,99877.50
2023-06-06T17:37:25.026Z,99876.09
2023-06-06T17:39:53.679Z,99882.31
2023-06-06T17:42:23.301Z,99884.25
2023-06-06T17:44:54.805Z,99882.06
2023-06-06T17:47:25.465Z,99885.97
2023-06-06T17:49:54.090Z,99892.28
2023-06-06T17:52:22.954Z,99899.41
2023-06-06T17:54:51.595Z,99884.56
2023-06-06T17:57:21.558Z,99882.78
2023-06-06T17:59:55.155Z,99901.81
2023-06-06T18:02:26.899Z,99908.28
2023-06-06T18:04:55.615Z,99904.47
2023-06-06T18:07:24.182Z,99895.31
2023-06-06T18:09:52.622Z,99908.06
2023-06-06T18:12:21.567Z,99892.72
2023-06-06T18:14:53.133Z,99909.28
2023-06-06T18:17:23.318Z,99904.72
2023-06-06T18:19:54.088Z,99904.47
2023-06-06T18:22:23.328Z,99907.91
2023-06-06T18:24:52.522Z,99903.00
2023-06-06T18:27:21.743Z,99910.34
2023-06-06T18:29:52.205Z,99915.56
2023-06-06T18:32:22.278Z,99905.34
2023-06-06T18:34:51.775Z,99915.88
2023-06-06T18:37:21.740Z,99905.91
2023-06-06T18:39:51.887Z,99914.16
2023-06-06T18:42:23.129Z,99911.06
2023-06-06T18:44:51.729Z,99910.09
2023-06-06T18:47:20.362Z,99906.13
2023-06-06T18:49:51.691Z,99912.97
2023-06-06T18:52:20.714Z,99914.97
2023-06-06T18:54:50.581Z,99912.34
2023-06-06T18:57:19.253Z,99921.44
2023-06-06T18:59:48.010Z,99921.97
2023-06-06T19:02:18.855Z,99926.31
2023-06-06T19:04:51.489Z,99922.41
2023-06-06T19:07:22.532Z,99916.19
2023-06-06T19:09:51.135Z,99925.03
2023-06-06T19:12:22.618Z,99913.03
2023-06-06T19:14:54.964Z,99921.66
2023-06-06T19:17:23.578Z,99924.44
2023-06-06T19:19:52.061Z,99925.59
2023-06-06T19:22:22.318Z,99927.13
2023-06-06T19:24:50.796Z,99933.34
2023-06-06T19:27:19.294Z,99931.34
2023-06-06T19:29:49.040Z,99934.09
2023-06-06T19:32:22.418Z,99927.41
2023-06-06T19:34:52.844Z,99933.78
2023-06-06T19:37:22.758Z,99937.41
2023-06-06T19:39:53.691Z,99937.84
2023-06-06T19:42:24.672Z,99943.38
2023-06-06T19:44:53.434Z,99943.06
2023-06-06T19:47:22.285Z,99942.19
2023-06-06T19:49:50.891Z,99945.28
2023-06-06T19:52:20.653Z,99943.50
2023-06-06T19:54:50.618Z,99943.84
2023-06-06T19:57:19.311Z,99942.19
2023-06-06T19:59:48.104Z,99951.97
2023-06-06T20:02:19.362Z,99953.31
2023-06-06T20:04:48.069Z,99950.19
2023-06-06T20:07:16.543Z,99950.50
2023-06-06T20:09:45.304Z,99956.16
2023-06-06T20:12:17.161Z,99951.50
2023-06-06T20:14:46.084Z,99952.06
2023-06-06T20:17:14.578Z,99951.03
2023-06-06T20:19:43.251Z,99948.94
2023-06-06T20:22:13.370Z,99948.56
2023-06-06T20:24:42.306Z,99951.66
2023-06-06T20:27:16.383Z,99956.00
2023-06-06T20:29:45.356Z,99949.56
2023-06-06T20:32:14.263Z,99948.84
2023-06-06T20:34:42.977Z,99953.44
2023-06-06T20:37:12.427Z,99960.78
2023-06-06T20:39:53.348Z,99959.03
2023-06-06T20:42:24.258Z,99966.31
2023-06-06T20:44:53.191Z,99958.53
2023-06-06T20:47:21.675Z,99958.63
2023-06-06T20:49:50.507Z,99966.59
2023-06-06T20:52:20.747Z,99969.38
2023-06-06T20:54:49.535Z,99967.53
2023-06-06T20:57:18.109Z,99966.00
2023-06-06T20:59:48.030Z,99972.81
2023-06-06T21:02:16.478Z,99964.06
2023-06-06T21:04:45.033Z,99972.44
2023-06-06T21:07:13.968Z,99975.69
2023-06-06T21:09:42.518Z,99974.72
2023-06-06T21:12:11.486Z,99969.06
2023-06-06T21:14:40.015Z,99983.34
2023-06-06T21:17:10.087Z,99974.13
2023-06-06T21:19:41.782Z,99983.81
2023-06-06T21:22:10.368Z,99989.22
2023-06-06T21:24:38.784Z,99983.06
2023-06-06T21:27:10.839Z,99981.94
2023-06-06T21:29:39.460Z,99982.72
2023-06-06T21:32:10.402Z,99985.50
2023-06-06T21:34:39.180Z,99982.22
2023-06-06T21:37:07.653Z,99986.38
2023-06-06T21:39:36.449Z,99991.72
2023-06-06T21:42:06.305Z,99990.16
2023-06-06T21:44:35.091Z,99984.81
2023-06-06T21:47:03.580Z,99987.59
2023-06-06T21:49:33.653Z,99981.72
2023-06-06T21:52:02.192Z,99986.38
2023-06-06T21:54:31.065Z,99992.69
2023-06-06T21:57:01.430Z,99987.63
2023-06-06T21:59:30.218Z,99986.88
2023-06-06T22:01:58.688Z,99982.38
2023-06-06T22:04:27.401Z,99982.59
2023-06-06T22:07:00.273Z,99980.81
2023-06-06T22:09:29.058Z,99980.00
2023-06-06T22:11:59.732Z,99986.94
2023-06-06T22:14:28.291Z,99986.84
2023-06-06T22:16:56.704Z,99981.69
2023-06-06T22:19:25.276Z,99983.47
2023-06-06T22:21:54.021Z,99993.03
2023-06-06T22:24:24.456Z,99990.31
2023-06-06T22:26:54.525Z,99989.69
2023-06-06T22:29:23.156Z,99986.16
2023-06-06T22:31:52.281Z,99993.09
2023-06-06T22:34:22.702Z,99987.03
2023-06-06T22:36:51.848Z,99987.81
2023-06-06T22:39:21.346Z,99992.13
2023-06-06T22:41:51.354Z,99986.00
2023-06-06T22:44:23.072Z,99983.53
2023-06-06T22:46:52.129Z,99985.22
2023-06-06T22:49:20.774Z,99986.97
2023-06-06T22:51:49.376Z,99985.25
2023-06-06T22:54:17.839Z,99986.97
2023-06-06T22:56:46.539Z,99989.66
2023-06-06T22:59:16.934Z,99987.88
2023-06-06T23:01:45.541Z,99980.97
2023-06-06T23:04:13.990Z,99986.25
2023-06-06T23:06:42.555Z,99990.75
2023-06-06T23:09:11.108Z,99997.06
2023-06-06T23:11:39.949Z,99994.41
2023-06-06T23:14:08.542Z,100002.78
2023-06-06T23:16:38.913Z,100000.91
2023-06-06T23:19:07.417Z,100002.69
2023-06-06T23:21:37.300Z,99990.59
2023-06-06T23:24:07.625Z,99998.41
2023-06-06T23:26:36.525Z,100002.00
2023-06-06T23:29:05.113Z,99997.78
2023-06-06T23:31:33.736Z,99996.78
2023-06-06T23:34:03.866Z,99997.84
2023-06-06T23:36:32.805Z,99998.09
2023-06-06T23:39:01.563Z,99999.03
2023-06-06T23:41:30.531Z,100001.72
2023-06-06T23:44:00.168Z,99997.38
2023-06-06T23:46:28.777Z,99995.78
2023-06-06T23:48:58.725Z,100008.78
2023-06-06T23:51:30.422Z,100004.47
2023-06-06T23:53:58.963Z,100000.19
2023-06-06T23:56:27.518Z,100002.22
2023-06-06T23:58:56.153Z,100003.00
